createdAt,value
2018-09-05T00:03:39.994Z,94.70
2018-09-05T00:08:43.137Z,95.00
2018-09-05T00:13:46.241Z,93.20
2018-09-05T00:18:49.418Z,93.80
2018-09-05T00:23:52.542Z,94.00
2018-09-05T00:28:55.649Z,95.00
2018-09-05T00:33:58.865Z,94.30
2018-09-05T00:39:01.993Z,94.60
2018-09-05T00:44:05.125Z,95.00
2018-09-05T00:49:08.235Z,95.30
2018-09-05T00:54:11.352Z,96.00
2018-09-05T00:59:16.323Z,95.30
2018-09-05T01:04:19.455Z,96.70
2018-09-05T01:09:22.569Z,97.10
2018-09-05T01:14:25.684Z,97.30
2018-09-05T01:19:28.821Z,99.30
2018-09-05T01:24:31.947Z,99.20
2018-09-05T01:29:36.429Z,99.90
2018-09-05T01:34:41.273Z,99.90
2018-09-05T01:39:44.430Z,99.90
2018-09-05T01:44:47.566Z,99.90
2018-09-05T01:49:50.685Z,99.90
2018-09-05T01:54:53.804Z,99.90
2018-09-05T01:59:56.931Z,99.90
2018-09-05T02:05:00.050Z,99.90
2018-09-05T02:10:03.177Z,99.90
2018-09-05T02:15:06.330Z,99.90
2018-09-05T02:20:09.447Z,99.90
2018-09-05T02:25:12.537Z,99.90
2018-09-05T02:30:15.741Z,99.90
2018-09-05T02:35:18.844Z,99.90
2018-09-05T02:40:22.000Z,99.90
2018-09-05T02:45:25.110Z,99.90
2018-09-05T02:50:28.243Z,99.90
2018-09-05T02:55:36.941Z,99.90
2018-09-05T03:00:40.044Z,99.90
2018-09-05T03:05:43.148Z,99.90
2018-09-05T03:10:46.254Z,99.90
2018-09-05T03:15:49.418Z,99.90
2018-09-05T03:20:52.521Z,99.90
2018-09-05T03:25:56.801Z,99.90
2018-09-05T03:30:59.898Z,99.90
2018-09-05T03:36:02.979Z,99.90
2018-09-05T03:41:06.338Z,99.90
2018-09-05T03:46:09.420Z,99.90
2018-09-05T03:51:12.542Z,99.90
2018-09-05T03:56:15.630Z,99.90
2018-09-05T04:01:18.714Z,99.90
2018-09-05T04:06:23.591Z,99.90
2018-09-05T04:11:26.741Z,99.90
2018-09-05T04:16:29.815Z,99.90
2018-09-05T04:21:39.490Z,99.90
2018-09-05T04:26:42.574Z,99.90
2018-09-05T04:31:45.714Z,99.90
2018-09-05T04:36:48.830Z,99.90
2018-09-05T04:41:51.925Z,99.90
2018-09-05T04:46:55.027Z,99.90
2018-09-05T04:51:58.141Z,99.90
2018-09-05T04:57:01.469Z,99.90
2018-09-05T05:02:04.590Z,99.90
2018-09-05T05:07:07.700Z,99.90
2018-09-05T05:12:10.799Z,99.90
2018-09-05T05:17:13.910Z,99.90
2018-09-05T05:22:17.025Z,99.90
2018-09-05T05:27:20.123Z,99.90
2018-09-05T05:32:23.247Z,99.90
2018-09-05T05:37:26.361Z,99.90
2018-09-05T05:42:29.461Z,99.90
2018-09-05T05:47:33.357Z,99.90
2018-09-05T05:52:36.474Z,99.90
2018-09-05T05:57:39.580Z,99.90
2018-09-05T06:02:42.694Z,99.90
2018-09-05T06:07:45.794Z,99.90
2018-09-05T06:12:48.905Z,99.90
2018-09-05T06:17:52.017Z,99.90
2018-09-05T06:22:55.280Z,99.90
2018-09-05T06:27:58.430Z,99.90
2018-09-05T06:33:01.530Z,99.90
2018-09-05T06:38:04.631Z,99.90
2018-09-05T06:43:07.733Z,99.90
2018-09-05T06:48:10.830Z,99.90
2018-09-05T06:53:13.907Z,99.90
2018-09-05T06:58:17.004Z,99.90
2018-09-05T07:03:20.361Z,99.90
2018-09-05T07:08:23.456Z,99.90
2018-09-05T07:13:26.517Z,99.90
2018-09-05T07:18:29.601Z,99.90
2018-09-05T07:23:32.716Z,99.90
2018-09-05T07:28:35.821Z,99.90
2018-09-05T07:33:38.912Z,99.90
2018-09-05T07:38:42.042Z,99.90
2018-09-05T07:43:45.176Z,99.90
2018-09-05T07:48:48.285Z,99.90
2018-09-05T07:53:51.400Z,99.90
2018-09-05T07:58:54.513Z,99.90
2018-09-05T08:03:57.836Z,99.90
2018-09-05T08:09:00.937Z,99.90
2018-09-05T08:14:04.045Z,99.80
2018-09-05T08:19:07.147Z,99.70
2018-09-05T08:24:10.261Z,99.00
2018-09-05T08:29:13.406Z,99.00
2018-09-05T08:34:16.480Z,98.90
2018-09-05T08:39:19.574Z,99.80
2018-09-05T08:44:22.779Z,99.80
2018-09-05T08:49:25.757Z,98.70
2018-09-05T08:54:32.750Z,99.10
2018-09-05T08:59:35.849Z,97.90
2018-09-05T09:04:39.017Z,98.20
2018-09-05T09:09:42.056Z,97.30
2018-09-05T09:14:45.145Z,94.50
2018-09-05T09:19:48.263Z,94.70
2018-09-05T09:24:51.396Z,93.80
2018-09-05T09:29:54.525Z,95.50
2018-09-05T09:34:57.682Z,93.60
2018-09-05T09:40:00.786Z,92.80
2018-09-05T09:45:03.882Z,92.80
2018-09-05T09:50:06.971Z,92.20
2018-09-05T09:55:10.074Z,91.00
2018-09-05T10:00:17.421Z,90.20
2018-09-05T10:05:26.029Z,90.40
2018-09-05T10:10:34.579Z,88.30
2018-09-05T10:15:43.067Z,84.60
2018-09-05T10:20:46.152Z,83.00
2018-09-05T10:25:49.226Z,81.20
2018-09-05T10:30:52.292Z,80.00
2018-09-05T10:35:55.425Z,81.70
2018-09-05T10:40:58.525Z,77.60
2018-09-05T10:46:01.590Z,79.30
2018-09-05T10:51:04.810Z,73.50
2018-09-05T10:56:07.894Z,72.60
2018-09-05T11:01:10.998Z,73.50
2018-09-05T11:06:14.076Z,73.20
2018-09-05T11:11:17.193Z,74.30
2018-09-05T11:16:20.306Z,72.60
2018-09-05T11:21:23.461Z,73.50
2018-09-05T11:26:26.535Z,68.50
2018-09-05T11:31:29.634Z,70.00
2018-09-05T11:36:32.873Z,69.00
2018-09-05T11:41:35.974Z,65.40
2018-09-05T11:46:39.671Z,60.60
2018-09-05T11:51:42.781Z,63.00
2018-09-05T11:56:45.870Z,64.00
2018-09-05T12:01:48.970Z,63.10
2018-09-05T12:06:52.098Z,64.00
2018-09-05T12:11:55.223Z,63.10
2018-09-05T12:16:58.313Z,62.50
2018-09-05T12:22:01.396Z,62.80
2018-09-05T12:27:04.465Z,63.30
2018-09-05T12:32:07.521Z,62.10
2018-09-05T12:37:10.786Z,64.20
2018-09-05T12:42:13.866Z,61.70
2018-09-05T12:47:16.937Z,60.50
2018-09-05T12:52:20.021Z,63.30
2018-09-05T12:57:23.110Z,61.70
2018-09-05T13:02:26.190Z,59.80
2018-09-05T13:07:29.299Z,59.10
2018-09-05T13:12:32.422Z,57.20
2018-09-05T13:17:35.545Z,56.90
2018-09-05T13:22:38.646Z,58.50
2018-09-05T13:27:41.723Z,57.00
2018-09-05T13:32:44.791Z,56.40
2018-09-05T13:37:47.889Z,56.20
2018-09-05T13:42:50.978Z,60.20
2018-09-05T13:53:03.658Z,53.20
2018-09-05T13:58:06.734Z,53.80
2018-09-05T14:03:09.805Z,54.30
2018-09-05T14:08:12.953Z,54.60
2018-09-05T14:13:16.026Z,54.80
2018-09-05T14:18:19.097Z,54.70
2018-09-05T14:23:22.354Z,54.60
2018-09-05T14:28:25.495Z,53.20
2018-09-05T14:33:28.639Z,52.60
2018-09-05T14:38:31.761Z,53.40
2018-09-05T14:43:34.866Z,53.90
2018-09-05T14:48:37.992Z,53.60
2018-09-05T14:53:41.074Z,53.70
2018-09-05T14:58:44.169Z,53.30
2018-09-05T15:03:47.271Z,53.20
2018-09-05T15:08:50.381Z,51.60
2018-09-05T15:13:53.477Z,51.30
2018-09-05T15:18:56.568Z,50.70
2018-09-05T15:23:59.760Z,51.90
2018-09-05T15:29:02.930Z,51.60
2018-09-05T15:34:06.890Z,50.70
2018-09-05T15:39:10.801Z,50.30
2018-09-05T15:44:13.921Z,51.10
2018-09-05T15:49:17.114Z,53.00
2018-09-05T15:54:20.210Z,51.50
2018-09-05T15:59:24.052Z,50.40
2018-09-05T16:04:27.173Z,52.00
2018-09-05T16:09:30.320Z,51.30
2018-09-05T16:14:33.490Z,51.30
2018-09-05T16:19:36.704Z,51.90
2018-09-05T16:24:39.879Z,52.40
2018-09-05T16:29:43.042Z,52.20
2018-09-05T16:34:46.175Z,50.80
2018-09-05T16:39:49.307Z,52.50
2018-09-05T16:44:52.438Z,52.30
2018-09-05T16:49:55.836Z,52.80
2018-09-05T16:54:59.453Z,53.20
2018-09-05T17:00:02.554Z,54.10
2018-09-05T17:05:05.683Z,56.00
2018-09-05T17:10:08.783Z,57.40
2018-09-05T17:15:11.890Z,58.90
2018-09-05T17:20:15.056Z,60.00
2018-09-05T17:25:18.188Z,60.20
2018-09-05T17:30:21.704Z,61.30
2018-09-05T17:35:24.837Z,62.10
2018-09-05T17:40:27.938Z,62.60
2018-09-05T17:45:31.120Z,62.40
2018-09-05T17:50:34.254Z,62.90
2018-09-05T17:55:37.384Z,62.80
2018-09-05T18:00:42.022Z,64.60
2018-09-05T18:05:45.116Z,63.00
2018-09-05T18:10:48.252Z,65.20
2018-09-05T18:15:52.222Z,66.80
2018-09-05T18:20:55.398Z,67.80
2018-09-05T18:25:58.978Z,69.10
2018-09-05T18:31:02.753Z,69.80
2018-09-05T18:36:06.527Z,71.40
2018-09-05T18:41:10.299Z,71.80
2018-09-05T18:46:14.723Z,73.40
2018-09-05T18:56:27.894Z,75.80
2018-09-05T19:01:31.556Z,76.30
2018-09-05T19:06:35.228Z,77.20
2018-09-05T19:11:39.271Z,77.10
2018-09-05T19:16:43.042Z,78.80
2018-09-05T19:21:46.385Z,79.00
2018-09-05T19:26:49.944Z,80.20
2018-09-05T19:31:53.569Z,81.50
2018-09-05T19:36:56.892Z,82.00
2018-09-05T19:42:00.298Z,82.30
2018-09-05T19:47:03.535Z,83.40
2018-09-05T19:52:06.769Z,84.50
2018-09-05T19:57:10.147Z,86.90
2018-09-05T20:02:13.634Z,86.10
2018-09-05T20:07:16.741Z,87.20
2018-09-05T20:12:20.318Z,88.60
2018-09-05T20:17:23.940Z,87.00
2018-09-05T20:22:27.594Z,86.50
2018-09-05T20:27:31.126Z,86.20
2018-09-05T20:32:34.264Z,88.10
2018-09-05T20:37:37.489Z,88.70
2018-09-05T20:42:40.657Z,89.70
2018-09-05T20:47:44.817Z,87.70
2018-09-05T20:52:48.469Z,88.40
2018-09-05T20:57:51.947Z,88.20
2018-09-05T21:02:55.093Z,89.60
2018-09-05T21:07:58.197Z,89.70
2018-09-05T21:13:01.291Z,88.80
2018-09-05T21:18:04.494Z,90.30
2018-09-05T21:23:07.720Z,90.80
2018-09-05T21:28:10.784Z,90.60
2018-09-05T21:33:14.006Z,90.80
2018-09-05T21:38:17.088Z,91.60
2018-09-05T21:43:20.283Z,91.80
2018-09-05T21:48:23.699Z,92.20
2018-09-05T21:53:26.935Z,92.00
2018-09-05T21:58:30.337Z,91.90
2018-09-05T22:03:33.431Z,92.40
2018-09-05T22:08:36.675Z,92.30
2018-09-05T22:13:40.106Z,92.60
2018-09-05T22:18:43.408Z,92.80
2018-09-05T22:23:46.703Z,93.00
2018-09-05T22:28:49.943Z,92.90
2018-09-05T22:33:53.038Z,92.50
2018-09-05T22:38:56.104Z,93.10
2018-09-05T22:44:10.795Z,93.80
2018-09-05T22:51:40.387Z,93.20
2018-09-05T22:58:09.614Z,93.10
2018-09-05T23:03:24.145Z,93.10
2018-09-05T23:08:33.742Z,93.70
2018-09-05T23:13:48.397Z,93.90
2018-09-05T23:19:06.872Z,94.00
2018-09-05T23:24:10.697Z,94.00
2018-09-05T23:29:13.841Z,93.90
2018-09-05T23:34:16.970Z,94.60
2018-09-05T23:39:20.087Z,95.50
2018-09-05T23:44:23.342Z,95.10
2018-09-05T23:49:26.452Z,95.10
2018-09-05T23:54:29.586Z,94.70
2018-09-05T23:59:32.747Z,94.30
